Time;durP1;ratioP1;P1;durP2;ratioP2;P2;SDS_P1;SDS_P2;PMS_P1;PMS_P2;Temp;Humidity;BMP_temperature;BMP_pressure;BME280_temperature;BME280_humidity;BME280_pressure;Samples;Min_cycle;Max_cycle;Signal;HPM_P1;HPM_P2
2023/04/12 00:01:05;;;;;;;15.43;2.80;;;;;;;;;;5002444;28;20065;-86
2023/04/12 00:03:32;;;;;;;10.77;2.90;;;;;;;;;;5013908;28;20034;-85
2023/04/12 00:06:02;;;;;;;13.48;2.47;;;;;;;;;;5017903;28;20050;-85
2023/04/12 00:08:32;;;;;;;12.50;2.72;;;;;;;;;;5008732;28;20042;-86
2023/04/12 00:10:58;;;;;;;15.32;3.10;;;;;;;;;;4999969;28;20060;-87
2023/04/12 00:13:25;;;;;;;13.13;2.58;;;;;;;;;;4986447;28;20054;-87
2023/04/12 00:15:51;;;;;;;13.13;2.67;;;;;;;;;;5004034;28;20050;-87
2023/04/12 00:18:17;;;;;;;12.05;2.58;;;;;;;;;;4986363;28;20042;-87
2023/04/12 00:20:43;;;;;;;11.45;2.95;;;;;;;;;;4986635;28;20500;-87
2023/04/12 00:23:11;;;;;;;13.20;2.80;;;;;;;;;;4995878;28;20043;-88
2023/04/12 00:25:38;;;;;;;9.75;2.65;;;;;;;;;;5002872;28;20441;-87
2023/04/12 00:28:04;;;;;;;12.55;2.65;;;;;;;;;;4994790;28;20042;-89
2023/04/12 00:30:31;;;;;;;10.95;2.60;;;;;;;;;;4990236;28;20051;-88
2023/04/12 00:32:57;;;;;;;15.48;2.92;;;;;;;;;;4982087;28;20046;-88
2023/04/12 00:35:23;;;;;;;13.35;2.70;;;;;;;;;;4996109;28;20050;-88
2023/04/12 00:37:50;;;;;;;11.23;2.72;;;;;;;;;;4979040;28;20097;-87
2023/04/12 00:40:16;;;;;;;13.07;2.75;;;;;;;;;;4994364;28;20039;-88
2023/04/12 00:42:42;;;;;;;12.68;2.53;;;;;;;;;;4992048;28;20038;-88
2023/04/12 00:45:08;;;;;;;12.10;2.72;;;;;;;;;;4992025;28;20053;-88
2023/04/12 00:47:36;;;;;;;11.73;2.40;;;;;;;;;;4976944;28;20076;-88
2023/04/12 00:50:03;;;;;;;14.60;2.70;;;;;;;;;;4998501;28;20054;-87
2023/04/12 00:52:33;;;;;;;10.80;2.50;;;;;;;;;;4993578;28;20114;-89
2023/04/12 00:54:59;;;;;;;8.65;2.50;;;;;;;;;;4993911;28;20101;-87
2023/04/12 00:57:26;;;;;;;10.70;3.17;;;;;;;;;;4995783;28;20038;-85
2023/04/12 00:59:52;;;;;;;8.95;2.55;;;;;;;;;;4987736;28;20070;-87
2023/04/12 01:02:18;;;;;;;10.82;3.00;;;;;;;;;;4986586;28;20060;-87
2023/04/12 01:04:49;;;;;;;9.38;2.40;;;;;;;;;;5003950;28;20046;-87
2023/04/12 01:07:50;;;;;;;10.25;3.00;;;;;;;;;;4984033;28;20536;-88
2023/04/12 01:10:25;;;;;;;12.98;3.05;;;;;;;;;;4982685;28;20478;-88
2023/04/12 01:12:56;;;;;;;13.48;3.47;;;;;;;;;;4966765;28;20053;-88
2023/04/12 01:15:23;;;;;;;;;;;;;;;;;;4969884;28;20042;-87
2023/04/12 01:17:56;;;;;;;13.07;3.05;;;;;;;;;;4985143;28;19929;-87
2023/04/12 01:20:24;;;;;;;10.40;3.20;;;;;;;;;;4981580;28;20097;-86
2023/04/12 01:23:03;;;;;;;19.23;3.53;;;;;;;;;;4971562;28;20047;-87
2023/04/12 01:25:38;;;;;;;11.77;2.92;;;;;;;;;;4972932;28;20046;-87
2023/04/12 01:28:04;;;;;;;12.25;3.10;;;;;;;;;;4999397;28;20177;-88
2023/04/12 01:30:31;;;;;;;13.43;3.40;;;;;;;;;;4980955;28;20043;-87
2023/04/12 01:32:59;;;;;;;14.00;3.28;;;;;;;;;;4979818;28;20054;-87
2023/04/12 01:35:32;;;;;;;11.07;3.25;;;;;;;;;;4997357;28;20046;-87
2023/04/12 01:37:59;;;;;;;12.82;3.58;;;;;;;;;;4975852;28;20044;-86
2023/04/12 01:40:26;;;;;;;11.27;3.00;;;;;;;;;;4997301;28;20046;-88
2023/04/12 01:43:14;;;;;;;13.23;4.25;;;;;;;;;;4961919;28;20054;-88
2023/04/12 01:45:40;;;;;;;14.13;3.47;;;;;;;;;;4973791;28;20042;-88
2023/04/12 01:48:10;;;;;;;14.38;3.60;;;;;;;;;;4997991;28;20102;-87
2023/04/12 01:50:55;;;;;;;13.20;3.38;;;;;;;;;;4978913;28;20488;-87
2023/04/12 01:53:31;;;;;;;12.80;3.45;;;;;;;;;;4997099;28;20050;-89
2023/04/12 01:55:59;;;;;;;13.43;3.85;;;;;;;;;;4996518;28;20034;-87
2023/04/12 01:58:26;;;;;;;11.25;3.28;;;;;;;;;;4985809;28;20471;-87
2023/04/12 02:00:52;;;;;;;13.00;3.72;;;;;;;;;;5003436;28;20082;-87
2023/04/12 02:03:20;;;;;;;14.73;3.80;;;;;;;;;;5004762;28;20050;-87
2023/04/12 02:05:46;;;;;;;16.02;3.53;;;;;;;;;;5002112;28;20046;-88
2023/04/12 02:08:12;;;;;;;14.13;3.65;;;;;;;;;;4982519;28;20038;-88
2023/04/12 02:10:39;;;;;;;13.15;3.47;;;;;;;;;;4986021;28;20061;-86
2023/04/12 02:13:05;;;;;;;14.73;3.67;;;;;;;;;;5003915;28;20050;-88
2023/04/12 02:15:32;;;;;;;14.77;4.28;;;;;;;;;;4988770;28;20097;-88
2023/04/12 02:17:59;;;;;;;14.80;3.45;;;;;;;;;;4988785;28;20109;-88
2023/04/12 02:20:26;;;;;;;15.98;3.70;;;;;;;;;;5005451;28;20045;-88
2023/04/12 02:22:52;;;;;;;14.70;3.60;;;;;;;;;;5002357;28;20058;-88
2023/04/12 02:25:18;;;;;;;13.27;4.20;;;;;;;;;;5004920;28;20046;-87
2023/04/12 02:27:45;;;;;;;13.98;3.30;;;;;;;;;;4987707;28;20046;-87
2023/04/12 02:30:11;;;;;;;14.10;3.88;;;;;;;;;;5004989;28;20057;-88
2023/04/12 02:32:43;;;;;;;11.10;3.53;;;;;;;;;;4985004;28;20102;-88
2023/04/12 02:35:13;;;;;;;11.10;3.20;;;;;;;;;;4990092;28;20086;-87
2023/04/12 02:37:40;;;;;;;17.38;4.05;;;;;;;;;;5019193;28;20030;-88
2023/04/12 02:40:09;;;;;;;15.00;3.83;;;;;;;;;;5002223;28;20030;-86
2023/04/12 02:42:35;;;;;;;12.13;3.45;;;;;;;;;;5000067;28;20022;-88
2023/04/12 02:45:02;;;;;;;15.18;3.70;;;;;;;;;;4989191;28;20508;-88
2023/04/12 02:47:29;;;;;;;13.57;3.38;;;;;;;;;;4986379;28;20053;-87
2023/04/12 02:49:55;;;;;;;12.27;3.25;;;;;;;;;;4985138;28;20047;-87
2023/04/12 02:52:21;;;;;;;12.60;3.60;;;;;;;;;;4996822;28;20052;-87
2023/04/12 02:54:51;;;;;;;16.45;4.00;;;;;;;;;;4987530;28;20046;-87
2023/04/12 02:57:19;;;;;;;14.70;4.03;;;;;;;;;;5002940;28;20056;-88
2023/04/12 02:59:46;;;;;;;11.85;3.70;;;;;;;;;;5000950;28;20050;-89
2023/04/12 03:02:12;;;;;;;11.23;3.58;;;;;;;;;;4986951;28;20038;-87
2023/04/12 03:04:38;;;;;;;9.63;2.83;;;;;;;;;;4994745;28;20050;-88
2023/04/12 03:07:05;;;;;;;15.52;3.60;;;;;;;;;;4990977;28;20038;-87
2023/04/12 03:09:32;;;;;;;12.57;3.10;;;;;;;;;;4994262;28;20046;-88
2023/04/12 03:11:58;;;;;;;14.02;3.40;;;;;;;;;;4992161;28;20108;-88
2023/04/12 03:14:24;;;;;;;9.38;3.10;;;;;;;;;;4980507;28;20580;-87
2023/04/12 03:16:52;;;;;;;10.63;3.00;;;;;;;;;;4980253;28;20050;-88
2023/04/12 03:19:18;;;;;;;11.90;3.10;;;;;;;;;;4992514;28;22040;-88
2023/04/12 03:21:44;;;;;;;10.90;3.38;;;;;;;;;;4990717;28;20492;-88
2023/04/12 03:24:11;;;;;;;13.25;3.28;;;;;;;;;;4973455;28;20108;-89
2023/04/12 03:26:37;;;;;;;14.65;3.55;;;;;;;;;;4988221;28;20052;-88
2023/04/12 03:29:09;;;;;;;9.75;4.15;;;;;;;;;;4975281;28;20042;-88
2023/04/12 03:31:35;;;;;;;11.02;2.80;;;;;;;;;;4993488;28;20072;-88
2023/04/12 03:34:02;;;;;;;11.10;2.97;;;;;;;;;;5009658;28;20092;-87
2023/04/12 03:36:29;;;;;;;10.40;2.92;;;;;;;;;;4993132;28;20050;-87
2023/04/12 03:38:55;;;;;;;7.97;2.55;;;;;;;;;;4991506;28;20046;-89
2023/04/12 03:41:24;;;;;;;8.00;2.45;;;;;;;;;;5009720;28;20583;-87
2023/04/12 03:43:50;;;;;;;10.60;2.65;;;;;;;;;;4994701;28;20047;-88
2023/04/12 03:46:17;;;;;;;9.77;3.22;;;;;;;;;;4996477;28;20054;-88
2023/04/12 03:48:43;;;;;;;12.18;3.33;;;;;;;;;;4978070;28;20055;-88
2023/04/12 03:51:11;;;;;;;10.27;3.03;;;;;;;;;;4978912;28;20065;-89
2023/04/12 03:53:40;;;;;;;16.45;3.53;;;;;;;;;;4993060;28;20069;-87
2023/04/12 03:56:06;;;;;;;11.95;3.72;;;;;;;;;;4993925;28;20508;-88
2023/04/12 03:58:32;;;;;;;9.95;3.75;;;;;;;;;;4976937;28;20050;-88
2023/04/12 04:01:00;;;;;;;11.23;3.65;;;;;;;;;;4984346;28;20069;-88
2023/04/12 04:03:28;;;;;;;12.43;3.78;;;;;;;;;;4982572;28;20069;-88
2023/04/12 04:05:54;;;;;;;12.88;3.65;;;;;;;;;;4985548;28;20061;-86
2023/04/12 04:08:21;;;;;;;10.75;3.20;;;;;;;;;;5002994;28;20101;-87
2023/04/12 04:10:47;;;;;;;9.02;3.40;;;;;;;;;;5003664;28;20408;-87
2023/04/12 04:13:13;;;;;;;10.18;3.15;;;;;;;;;;4999764;28;20058;-87
2023/04/12 04:15:39;;;;;;;10.95;3.00;;;;;;;;;;4987767;28;20061;-87
2023/04/12 04:18:05;;;;;;;12.07;3.30;;;;;;;;;;4986197;28;20459;-87
2023/04/12 04:20:31;;;;;;;12.30;3.58;;;;;;;;;;4996690;28;20046;-88
2023/04/12 04:22:58;;;;;;;13.25;3.70;;;;;;;;;;4996999;28;20042;-87
2023/04/12 04:25:28;;;;;;;11.27;3.47;;;;;;;;;;5003962;28;20065;-88
2023/04/12 04:27:55;;;;;;;11.90;3.53;;;;;;;;;;5006166;28;20061;-86
2023/04/12 04:30:22;;;;;;;14.38;3.50;;;;;;;;;;5005393;28;20050;-87
2023/04/12 04:32:48;;;;;;;10.35;3.10;;;;;;;;;;5003689;28;20043;-88
2023/04/12 04:35:16;;;;;;;10.25;3.20;;;;;;;;;;5002868;28;20038;-86
2023/04/12 04:37:43;;;;;;;12.40;3.47;;;;;;;;;;5003097;28;20042;-88
2023/04/12 04:40:13;;;;;;;10.90;3.13;;;;;;;;;;4987506;28;20052;-87
2023/04/12 04:42:41;;;;;;;10.48;2.95;;;;;;;;;;4977605;28;20053;-87
2023/04/12 04:45:12;;;;;;;9.88;2.53;;;;;;;;;;4984443;28;20050;-86
2023/04/12 04:47:39;;;;;;;12.55;3.33;;;;;;;;;;4990684;28;20054;-87
2023/04/12 04:50:06;;;;;;;9.38;2.75;;;;;;;;;;4978353;28;20035;-86
2023/04/12 04:52:32;;;;;;;10.15;3.33;;;;;;;;;;4993046;28;20043;-87
2023/04/12 04:54:58;;;;;;;9.70;2.63;;;;;;;;;;4992417;28;20042;-88
2023/04/12 04:57:25;;;;;;;10.18;2.85;;;;;;;;;;4995927;28;20125;-87
2023/04/12 04:59:51;;;;;;;11.25;2.60;;;;;;;;;;4997885;28;20050;-87
2023/04/12 05:02:17;;;;;;;10.15;2.42;;;;;;;;;;4980373;28;20042;-86
2023/04/12 05:04:44;;;;;;;8.75;2.50;;;;;;;;;;4997496;28;20050;-87
2023/04/12 05:07:12;;;;;;;8.48;2.60;;;;;;;;;;4979813;28;20113;-89
2023/04/12 05:09:38;;;;;;;7.85;2.38;;;;;;;;;;5011794;28;20094;-90
2023/04/12 05:12:04;;;;;;;12.02;2.92;;;;;;;;;;5013345;28;20058;-85
2023/04/12 05:14:30;;;;;;;10.07;2.55;;;;;;;;;;5001788;28;20046;-86
2023/04/12 05:16:56;;;;;;;11.88;2.20;;;;;;;;;;4977070;28;20089;-87
2023/04/12 05:19:22;;;;;;;9.13;2.25;;;;;;;;;;4993410;28;20051;-87
2023/04/12 05:21:48;;;;;;;8.85;2.60;;;;;;;;;;4993306;28;20156;-87
2023/04/12 05:24:15;;;;;;;11.38;2.33;;;;;;;;;;4993293;28;20047;-87
2023/04/12 05:26:41;;;;;;;10.15;2.60;;;;;;;;;;4996783;28;20146;-88
2023/04/12 05:29:10;;;;;;;8.88;2.50;;;;;;;;;;4990155;28;20043;-87
2023/04/12 05:31:36;;;;;;;11.30;2.25;;;;;;;;;;4977099;28;20034;-87
2023/04/12 05:34:02;;;;;;;11.20;2.55;;;;;;;;;;4992655;28;20054;-85
2023/04/12 05:36:28;;;;;;;8.25;2.17;;;;;;;;;;5007407;28;20310;-85
2023/04/12 05:38:54;;;;;;;8.38;2.67;;;;;;;;;;4983395;28;20082;-85
2023/04/12 05:41:20;;;;;;;14.60;2.80;;;;;;;;;;5006866;28;20047;-86
2023/04/12 05:43:46;;;;;;;12.55;2.50;;;;;;;;;;5009854;28;20492;-85
2023/04/12 05:46:12;;;;;;;10.25;2.67;;;;;;;;;;4990627;28;20061;-84
2023/04/12 05:48:38;;;;;;;10.25;2.67;;;;;;;;;;5005627;28;20081;-86
2023/04/12 05:51:04;;;;;;;10.38;2.60;;;;;;;;;;5006646;28;20120;-85
2023/04/12 05:53:31;;;;;;;9.27;2.50;;;;;;;;;;5006152;28;20069;-86
2023/04/12 05:55:57;;;;;;;10.50;2.65;;;;;;;;;;4999247;28;20055;-83
2023/04/12 05:58:23;;;;;;;10.98;2.70;;;;;;;;;;4985571;28;20108;-85
2023/04/12 06:00:50;;;;;;;10.73;2.63;;;;;;;;;;5003180;28;20050;-84
2023/04/12 06:03:16;;;;;;;8.57;2.70;;;;;;;;;;5003710;28;20042;-83
2023/04/12 06:05:42;;;;;;;10.68;2.97;;;;;;;;;;5001470;28;20417;-85
2023/04/12 06:08:09;;;;;;;9.93;2.92;;;;;;;;;;5002863;28;20088;-85
2023/04/12 06:10:35;;;;;;;10.85;2.80;;;;;;;;;;5001746;28;20110;-84
2023/04/12 06:13:01;;;;;;;9.10;2.70;;;;;;;;;;5006572;28;20042;-84
2023/04/12 06:15:27;;;;;;;11.38;2.75;;;;;;;;;;4999280;28;20053;-84
2023/04/12 06:17:53;;;;;;;8.75;2.80;;;;;;;;;;5007484;28;20112;-85
2023/04/12 06:20:20;;;;;;;10.50;3.10;;;;;;;;;;5004547;28;20038;-84
2023/04/12 06:22:46;;;;;;;10.90;2.78;;;;;;;;;;5004235;28;20050;-83
2023/04/12 06:25:12;;;;;;;8.18;2.55;;;;;;;;;;5001519;28;20078;-84
2023/04/12 06:27:38;;;;;;;9.40;2.95;;;;;;;;;;4998961;28;20041;-85
2023/04/12 06:30:04;;;;;;;10.95;2.90;;;;;;;;;;5005593;28;20054;-84
2023/04/12 06:32:30;;;;;;;10.77;2.67;;;;;;;;;;5005087;28;20076;-83
2023/04/12 06:34:56;;;;;;;14.27;3.17;;;;;;;;;;5006663;28;20516;-83
2023/04/12 06:37:22;;;;;;;10.18;2.63;;;;;;;;;;5006592;28;20057;-84
2023/04/12 06:39:49;;;;;;;10.30;3.50;;;;;;;;;;5008039;28;20042;-83
2023/04/12 06:42:15;;;;;;;9.68;2.70;;;;;;;;;;5007737;28;20042;-83
2023/04/12 06:44:41;;;;;;;9.70;2.50;;;;;;;;;;5007310;28;20129;-84
2023/04/12 06:47:08;;;;;;;10.00;2.65;;;;;;;;;;5005267;28;20066;-85
2023/04/12 06:49:34;;;;;;;8.75;2.63;;;;;;;;;;5006247;28;20042;-84
2023/04/12 06:52:00;;;;;;;8.98;2.67;;;;;;;;;;4995932;28;20042;-84
2023/04/12 06:54:26;;;;;;;9.55;2.75;;;;;;;;;;5008741;28;20050;-84
2023/04/12 06:56:52;;;;;;;7.70;2.22;;;;;;;;;;5011577;28;20046;-84
2023/04/12 06:59:18;;;;;;;9.63;2.63;;;;;;;;;;5010028;28;20053;-85
2023/04/12 07:01:44;;;;;;;10.32;2.88;;;;;;;;;;5006773;28;20129;-85
2023/04/12 07:04:11;;;;;;;8.18;2.40;;;;;;;;;;5005993;28;20045;-85
2023/04/12 07:06:37;;;;;;;7.07;2.60;;;;;;;;;;5003242;28;20042;-85
2023/04/12 07:09:03;;;;;;;9.60;2.80;;;;;;;;;;4997249;28;20078;-84
2023/04/12 07:11:30;;;;;;;8.55;2.50;;;;;;;;;;4988698;28;20059;-84
2023/04/12 07:13:58;;;;;;;11.73;2.85;;;;;;;;;;5002695;28;20061;-85
2023/04/12 07:16:24;;;;;;;10.25;2.97;;;;;;;;;;5007312;28;20042;-84
2023/04/12 07:18:50;;;;;;;9.57;2.95;;;;;;;;;;5007677;28;20054;-84
2023/04/12 07:21:16;;;;;;;10.18;3.17;;;;;;;;;;4992901;28;20107;-83
2023/04/12 07:23:43;;;;;;;8.32;2.92;;;;;;;;;;5002297;28;20050;-85
2023/04/12 07:26:09;;;;;;;9.23;2.95;;;;;;;;;;5006668;28;20054;-84
2023/04/12 07:28:36;;;;;;;10.50;3.65;;;;;;;;;;5004889;28;20042;-84
2023/04/12 07:31:06;;;;;;;9.65;2.85;;;;;;;;;;5003584;28;20061;-86
2023/04/12 07:33:34;;;;;;;10.35;2.80;;;;;;;;;;4988679;28;20169;-85
2023/04/12 07:36:00;;;;;;;11.07;3.10;;;;;;;;;;5005278;28;20050;-84
2023/04/12 07:38:26;;;;;;;7.88;2.70;;;;;;;;;;4980976;28;20070;-84
2023/04/12 07:40:54;;;;;;;9.10;3.22;;;;;;;;;;5003001;28;20042;-84
2023/04/12 07:43:20;;;;;;;10.10;3.22;;;;;;;;;;5001579;28;20042;-83
2023/04/12 07:45:46;;;;;;;8.20;3.50;;;;;;;;;;4989181;28;20046;-83
2023/04/12 07:48:12;;;;;;;8.13;3.25;;;;;;;;;;5005671;28;20046;-83
2023/04/12 07:50:40;;;;;;;10.65;3.33;;;;;;;;;;4994484;28;20070;-83
2023/04/12 07:53:22;;;;;;;8.05;3.30;;;;;;;;;;4987920;28;20043;-85
2023/04/12 07:55:49;;;;;;;9.65;3.20;;;;;;;;;;5006868;28;20098;-83
2023/04/12 07:58:15;;;;;;;9.10;3.70;;;;;;;;;;5004718;28;20049;-84
2023/04/12 08:00:42;;;;;;;7.82;3.17;;;;;;;;;;4989807;28;20114;-83
2023/04/12 08:03:08;;;;;;;7.53;3.42;;;;;;;;;;4990087;28;20046;-84
2023/04/12 08:05:34;;;;;;;7.55;3.28;;;;;;;;;;4995880;28;20050;-85
2023/04/12 08:08:00;;;;;;;9.15;3.45;;;;;;;;;;5000097;28;20084;-84
2023/04/12 08:10:27;;;;;;;7.60;3.20;;;;;;;;;;5000630;28;20062;-84
2023/04/12 08:12:53;;;;;;;7.10;3.55;;;;;;;;;;5003143;28;20050;-84
2023/04/12 08:15:19;;;;;;;8.70;3.15;;;;;;;;;;4993748;28;20082;-84
2023/04/12 08:17:45;;;;;;;9.52;3.50;;;;;;;;;;4996859;28;20092;-85
2023/04/12 08:20:12;;;;;;;7.82;3.40;;;;;;;;;;5000283;28;20412;-84
2023/04/12 08:22:38;;;;;;;8.57;3.80;;;;;;;;;;4996697;28;20038;-84
2023/04/12 08:25:05;;;;;;;7.32;3.55;;;;;;;;;;4999293;28;20042;-84
2023/04/12 08:27:31;;;;;;;8.13;3.80;;;;;;;;;;4993983;28;20062;-85
2023/04/12 08:29:57;;;;;;;8.48;3.92;;;;;;;;;;4995536;28;20046;-84
2023/04/12 08:32:23;;;;;;;7.28;3.53;;;;;;;;;;4997778;28;20061;-84
2023/04/12 08:34:49;;;;;;;7.28;3.33;;;;;;;;;;4994301;28;20061;-84
2023/04/12 08:37:15;;;;;;;8.63;3.10;;;;;;;;;;4994029;28;20046;-83
2023/04/12 08:39:42;;;;;;;7.15;3.08;;;;;;;;;;4994164;28;20079;-83
2023/04/12 08:42:08;;;;;;;8.48;3.20;;;;;;;;;;4995703;28;20038;-84
2023/04/12 08:44:35;;;;;;;6.63;2.72;;;;;;;;;;4992498;28;20045;-84
2023/04/12 08:47:05;;;;;;;5.95;2.75;;;;;;;;;;4997420;28;20039;-84
2023/04/12 08:49:32;;;;;;;5.93;2.95;;;;;;;;;;4999304;28;20118;-84
2023/04/12 08:52:04;;;;;;;7.05;2.78;;;;;;;;;;5002275;28;20046;-84
2023/04/12 08:54:30;;;;;;;7.90;2.85;;;;;;;;;;5002669;28;20049;-84
2023/04/12 08:56:58;;;;;;;7.00;2.78;;;;;;;;;;5004824;28;20149;-85
2023/04/12 08:59:26;;;;;;;7.40;2.60;;;;;;;;;;4996751;28;20047;-84
2023/04/12 09:01:53;;;;;;;5.15;2.50;;;;;;;;;;4996039;28;20077;-85
2023/04/12 09:04:19;;;;;;;6.40;2.45;;;;;;;;;;5007858;28;20038;-84
2023/04/12 09:06:45;;;;;;;6.20;2.50;;;;;;;;;;5003263;28;20046;-85
2023/04/12 09:09:11;;;;;;;5.13;2.13;;;;;;;;;;4999209;28;20057;-84
2023/04/12 09:11:39;;;;;;;7.00;2.15;;;;;;;;;;5006895;28;20456;-85
2023/04/12 09:14:20;;;;;;;5.75;2.42;;;;;;;;;;4999585;28;20046;-85
2023/04/12 09:16:47;;;;;;;8.30;2.40;;;;;;;;;;4999832;28;20038;-84
2023/04/12 09:19:13;;;;;;;6.85;2.60;;;;;;;;;;5000639;28;20050;-84
2023/04/12 09:21:55;;;;;;;4.50;2.40;;;;;;;;;;5005458;28;20051;-84
2023/04/12 09:24:24;;;;;;;5.40;2.70;;;;;;;;;;5002372;28;20109;-85
2023/04/12 09:27:03;;;;;;;5.40;2.60;;;;;;;;;;5000253;28;20050;-85
2023/04/12 09:29:30;;;;;;;6.15;2.50;;;;;;;;;;4997125;28;20057;-85
2023/04/12 09:31:57;;;;;;;5.50;2.65;;;;;;;;;;4997835;28;20038;-85
2023/04/12 09:34:23;;;;;;;5.00;2.80;;;;;;;;;;4994783;28;20038;-84
2023/04/12 09:36:49;;;;;;;5.68;2.80;;;;;;;;;;4994661;28;20043;-85
2023/04/12 09:39:16;;;;;;;5.40;2.83;;;;;;;;;;4998253;28;20126;-84
2023/04/12 09:41:42;;;;;;;7.07;3.25;;;;;;;;;;4997356;28;20057;-85
2023/04/12 09:44:09;;;;;;;6.15;3.40;;;;;;;;;;4995975;28;20057;-84
2023/04/12 09:46:36;;;;;;;5.72;3.50;;;;;;;;;;5001357;28;20050;-85
2023/04/12 09:49:02;;;;;;;5.47;3.80;;;;;;;;;;5007322;28;20073;-85
2023/04/12 09:51:31;;;;;;;5.78;3.90;;;;;;;;;;5006725;28;20046;-84
2023/04/12 09:54:01;;;;;;;7.97;4.63;;;;;;;;;;4999228;28;20097;-84
2023/04/12 09:56:31;;;;;;;8.70;4.43;;;;;;;;;;5005742;28;20046;-84
2023/04/12 09:59:01;;;;;;;7.00;4.35;;;;;;;;;;4997143;28;20065;-86
2023/04/12 10:01:29;;;;;;;8.75;5.00;;;;;;;;;;5003547;28;20505;-85
2023/04/12 10:03:56;;;;;;;6.78;4.68;;;;;;;;;;4996831;28;20078;-85
2023/04/12 10:06:22;;;;;;;7.43;4.35;;;;;;;;;;4986229;28;20050;-85
2023/04/12 10:08:49;;;;;;;6.32;5.10;;;;;;;;;;4986494;28;20051;-85
2023/04/12 10:11:15;;;;;;;7.63;4.63;;;;;;;;;;4987910;28;20055;-85
2023/04/12 10:13:42;;;;;;;8.15;5.38;;;;;;;;;;5006449;28;20606;-85
2023/04/12 10:16:09;;;;;;;8.02;5.75;;;;;;;;;;5007077;28;20102;-85
2023/04/12 10:18:36;;;;;;;7.43;6.18;;;;;;;;;;5004933;28;20038;-85
2023/04/12 10:21:03;;;;;;;8.25;6.00;;;;;;;;;;5011046;28;20046;-86
2023/04/12 10:23:31;;;;;;;6.82;4.50;;;;;;;;;;5005146;28;20046;-85
2023/04/12 10:25:58;;;;;;;7.05;4.63;;;;;;;;;;5004818;28;20054;-85
2023/04/12 10:28:24;;;;;;;7.03;4.55;;;;;;;;;;5020082;28;20054;-86
2023/04/12 10:30:53;;;;;;;9.40;5.10;;;;;;;;;;5001296;28;20073;-85
2023/04/12 10:33:25;;;;;;;7.97;4.90;;;;;;;;;;5006519;28;20174;-86
2023/04/12 10:36:07;;;;;;;8.30;4.82;;;;;;;;;;4994867;28;20069;-85
2023/04/12 10:38:44;;;;;;;6.88;4.47;;;;;;;;;;5003943;28;20093;-86
2023/04/12 10:41:12;;;;;;;7.55;4.55;;;;;;;;;;5002377;28;20099;-85
2023/04/12 10:43:38;;;;;;;7.72;3.92;;;;;;;;;;5004935;28;20038;-85
2023/04/12 10:46:05;;;;;;;7.57;3.63;;;;;;;;;;5005585;28;20042;-85
2023/04/12 10:48:35;;;;;;;6.38;3.75;;;;;;;;;;4997967;28;20062;-85
2023/04/12 10:51:12;;;;;;;6.68;3.83;;;;;;;;;;5001399;28;20039;-85
2023/04/12 10:53:38;;;;;;;7.97;4.20;;;;;;;;;;4986865;28;20038;-84
2023/04/12 10:56:23;;;;;;;7.38;3.92;;;;;;;;;;5004411;28;20049;-86
2023/04/12 10:58:49;;;;;;;9.48;4.57;;;;;;;;;;4995023;28;20096;-85
2023/04/12 11:01:17;;;;;;;6.75;4.50;;;;;;;;;;5004944;28;20058;-86
2023/04/12 11:04:01;;;;;;;9.13;4.07;;;;;;;;;;5002645;28;20110;-85
2023/04/12 11:06:47;;;;;;;7.72;4.38;;;;;;;;;;4999241;28;20066;-85
2023/04/12 11:09:17;;;;;;;8.68;3.65;;;;;;;;;;5004789;28;20102;-86
2023/04/12 11:11:43;;;;;;;6.63;3.60;;;;;;;;;;5006453;28;20382;-85
2023/04/12 11:14:10;;;;;;;7.20;3.72;;;;;;;;;;5006090;28;20511;-86
2023/04/12 11:16:56;;;;;;;7.75;3.70;;;;;;;;;;5003613;28;20042;-88
2023/04/12 11:19:22;;;;;;;9.68;4.28;;;;;;;;;;5001561;28;20057;-87
2023/04/12 11:21:48;;;;;;;10.52;3.83;;;;;;;;;;5004336;28;20062;-85
2023/04/12 11:24:15;;;;;;;8.75;4.10;;;;;;;;;;5005764;28;20042;-86
2023/04/12 11:26:41;;;;;;;12.45;3.72;;;;;;;;;;5006665;28;20145;-85
2023/04/12 11:29:07;;;;;;;12.57;3.45;;;;;;;;;;5005553;28;20385;-86
2023/04/12 11:31:33;;;;;;;8.50;3.40;;;;;;;;;;4998901;28;20097;-86
2023/04/12 11:34:00;;;;;;;8.57;3.67;;;;;;;;;;4998574;28;20046;-86
2023/04/12 11:36:26;;;;;;;9.48;3.40;;;;;;;;;;5004071;28;20046;-85
2023/04/12 11:38:55;;;;;;;11.68;3.40;;;;;;;;;;5003013;28;20559;-86
2023/04/12 11:41:21;;;;;;;11.32;3.55;;;;;;;;;;5006080;28;20065;-86
2023/04/12 11:43:48;;;;;;;14.40;3.40;;;;;;;;;;5002731;28;20428;-86
2023/04/12 11:46:15;;;;;;;12.70;3.13;;;;;;;;;;5004820;28;20066;-86
2023/04/12 11:48:45;;;;;;;10.15;2.88;;;;;;;;;;4997124;28;20057;-86
2023/04/12 11:51:24;;;;;;;10.18;3.20;;;;;;;;;;4987845;28;20066;-86
2023/04/12 11:53:54;;;;;;;9.85;2.83;;;;;;;;;;5004655;28;20046;-88
2023/04/12 11:56:20;;;;;;;11.50;3.05;;;;;;;;;;4984822;28;20042;-86
2023/04/12 11:58:47;;;;;;;11.73;3.10;;;;;;;;;;5004197;28;20054;-86
2023/04/12 12:01:16;;;;;;;12.45;3.08;;;;;;;;;;5003940;28;20054;-87
2023/04/12 12:03:43;;;;;;;8.43;2.50;;;;;;;;;;5004640;28;20054;-86
2023/04/12 12:06:09;;;;;;;14.50;2.83;;;;;;;;;;5005642;28;20481;-85
2023/04/12 12:08:36;;;;;;;11.02;2.60;;;;;;;;;;5007297;28;20106;-86
2023/04/12 12:11:02;;;;;;;11.45;2.35;;;;;;;;;;5000855;28;20106;-87
2023/04/12 12:13:43;;;;;;;12.88;2.72;;;;;;;;;;5007094;28;20094;-85
2023/04/12 12:16:09;;;;;;;11.05;2.83;;;;;;;;;;4999695;28;20485;-87
2023/04/12 12:18:39;;;;;;;10.25;2.30;;;;;;;;;;5004552;28;20493;-86
2023/04/12 12:21:08;;;;;;;11.38;2.72;;;;;;;;;;5001699;28;20488;-86
2023/04/12 12:23:35;;;;;;;10.23;2.30;;;;;;;;;;5000805;28;20038;-87
2023/04/12 12:26:02;;;;;;;9.95;2.58;;;;;;;;;;5000855;28;20038;-88
2023/04/12 12:28:28;;;;;;;11.68;2.50;;;;;;;;;;4997773;28;20042;-86
2023/04/12 12:30:57;;;;;;;8.68;2.10;;;;;;;;;;5001384;28;20055;-87
2023/04/12 12:33:24;;;;;;;12.73;2.60;;;;;;;;;;5007325;28;20050;-87
2023/04/12 12:35:57;;;;;;;9.15;2.40;;;;;;;;;;5004122;28;20052;-86
2023/04/12 12:38:23;;;;;;;11.27;2.45;;;;;;;;;;5000950;28;20042;-87
2023/04/12 12:40:50;;;;;;;13.55;2.67;;;;;;;;;;5003809;28;20094;-87
2023/04/12 12:43:19;;;;;;;15.00;3.00;;;;;;;;;;5005258;28;20153;-87
2023/04/12 12:45:46;;;;;;;11.10;2.10;;;;;;;;;;5006269;28;20420;-86
2023/04/12 12:48:12;;;;;;;11.80;2.55;;;;;;;;;;5001878;28;20043;-87
2023/04/12 12:50:39;;;;;;;10.70;2.22;;;;;;;;;;5002529;28;20046;-86
2023/04/12 12:53:05;;;;;;;10.95;2.83;;;;;;;;;;5009947;28;20065;-86
2023/04/12 12:55:31;;;;;;;15.02;2.80;;;;;;;;;;5007372;28;20504;-86
2023/04/12 12:57:58;;;;;;;10.30;2.50;;;;;;;;;;5004282;28;20050;-87
2023/04/12 13:00:25;;;;;;;12.70;2.47;;;;;;;;;;5003689;28;20069;-87
2023/04/12 13:02:52;;;;;;;11.65;2.45;;;;;;;;;;5001935;28;20425;-87
2023/04/12 13:05:18;;;;;;;13.25;2.60;;;;;;;;;;5003047;28;20480;-86
2023/04/12 13:07:45;;;;;;;13.95;2.75;;;;;;;;;;5003375;28;20094;-87
2023/04/12 13:10:11;;;;;;;13.25;2.50;;;;;;;;;;5001775;28;20050;-86
2023/04/12 13:12:38;;;;;;;11.68;2.35;;;;;;;;;;4999982;28;20388;-86
2023/04/12 13:15:04;;;;;;;10.45;1.98;;;;;;;;;;5006520;28;20046;-87
2023/04/12 13:17:30;;;;;;;12.27;2.60;;;;;;;;;;4986042;28;20050;-87
2023/04/12 13:19:57;;;;;;;11.20;2.28;;;;;;;;;;4977565;28;20716;-87
2023/04/12 13:22:24;;;;;;;10.65;2.40;;;;;;;;;;5009734;28;20441;-87
2023/04/12 13:24:50;;;;;;;10.38;2.45;;;;;;;;;;4982511;28;20078;-87
2023/04/12 13:27:16;;;;;;;11.95;2.42;;;;;;;;;;4998259;28;20042;-87
2023/04/12 13:29:42;;;;;;;13.30;2.60;;;;;;;;;;4990217;28;20086;-87
2023/04/12 13:32:08;;;;;;;15.40;2.50;;;;;;;;;;5007622;28;20043;-86
2023/04/12 13:34:35;;;;;;;12.05;2.40;;;;;;;;;;5006090;28;20053;-86
2023/04/12 13:37:01;;;;;;;16.65;2.88;;;;;;;;;;5008711;28;20038;-88
2023/04/12 13:39:27;;;;;;;17.25;2.67;;;;;;;;;;5008372;28;20098;-86
2023/04/12 13:41:53;;;;;;;13.77;2.95;;;;;;;;;;5007425;28;20046;-86
2023/04/12 13:44:20;;;;;;;11.40;2.45;;;;;;;;;;4985958;28;20059;-87
2023/04/12 13:46:46;;;;;;;7.15;1.30;;;;;;;;;;5002141;28;20049;-87
2023/04/12 13:49:15;;;;;;;5.95;1.10;;;;;;;;;;4989565;28;20054;-88
2023/04/12 13:51:41;;;;;;;5.88;1.10;;;;;;;;;;4979790;28;20051;-86
2023/04/12 13:54:07;;;;;;;4.72;0.95;;;;;;;;;;5006997;28;20070;-84
2023/04/12 13:56:33;;;;;;;5.45;0.88;;;;;;;;;;5006415;28;20073;-85
2023/04/12 13:59:00;;;;;;;6.90;1.20;;;;;;;;;;4987803;28;20085;-87
2023/04/12 14:01:26;;;;;;;6.53;1.30;;;;;;;;;;4995807;28;20050;-85
2023/04/12 14:03:55;;;;;;;6.50;1.25;;;;;;;;;;5002985;28;20057;-85
2023/04/12 14:06:22;;;;;;;9.23;1.60;;;;;;;;;;5003556;28;20038;-85
2023/04/12 14:08:48;;;;;;;7.78;1.52;;;;;;;;;;5004041;28;20062;-85
2023/04/12 14:11:14;;;;;;;9.50;1.60;;;;;;;;;;5007838;28;20054;-85
2023/04/12 14:13:40;;;;;;;9.23;1.70;;;;;;;;;;5000138;28;20209;-85
2023/04/12 14:16:07;;;;;;;9.68;2.05;;;;;;;;;;5000222;28;20046;-85
2023/04/12 14:18:33;;;;;;;9.55;1.80;;;;;;;;;;5006034;28;20054;-85
2023/04/12 14:20:59;;;;;;;13.85;3.03;;;;;;;;;;5008587;28;20390;-85
2023/04/12 14:23:25;;;;;;;11.52;2.58;;;;;;;;;;5001021;28;20053;-85
2023/04/12 14:25:52;;;;;;;10.88;2.17;;;;;;;;;;4991049;28;20050;-84
2023/04/12 14:28:20;;;;;;;10.88;2.72;;;;;;;;;;5005060;28;20054;-85
2023/04/12 14:30:49;;;;;;;13.93;2.35;;;;;;;;;;5005558;28;20416;-84
2023/04/12 14:33:16;;;;;;;10.60;2.30;;;;;;;;;;4975373;28;20046;-85
2023/04/12 14:35:42;;;;;;;12.68;2.15;;;;;;;;;;5001671;28;20050;-86
2023/04/12 14:38:08;;;;;;;9.15;1.70;;;;;;;;;;5005430;28;20389;-86